Time;durP1;ratioP1;P1;durP2;ratioP2;P2;SDS_P1;SDS_P2;PMS_P1;PMS_P2;Temp;Humidity;BMP_temperature;BMP_pressure;BME280_temperature;BME280_humidity;BME280_pressure;Samples;Min_cycle;Max_cycle;Signal;HPM_P1;HPM_P2
2023/03/17 00:00:35;;;;;;;3.53;3.20;;;;;;;6.69;73.27;100600.94;6212004;23;20008;-93
2023/03/17 00:03:02;;;;;;;4.90;3.63;;;;;;;6.58;72.82;100580.19;6213392;23;20437;-94
2023/03/17 00:05:32;;;;;;;4.35;3.47;;;;;;;6.55;73.13;100584.72;6201686;23;20168;-95
2023/03/17 00:08:09;;;;;;;4.95;3.17;;;;;;;6.64;73.39;100614.31;6194674;23;20628;-95
2023/03/17 00:10:35;;;;;;;3.90;3.50;;;;;;;6.71;73.39;100633.47;6213050;23;20023;-95
2023/03/17 00:13:02;;;;;;;3.50;3.20;;;;;;;6.75;73.21;100645.66;6214409;23;20004;-94
2023/03/17 00:15:29;;;;;;;5.05;3.58;;;;;;;6.61;73.44;100624.19;6213558;23;20031;-93
2023/03/17 00:17:55;;;;;;;4.10;3.33;;;;;;;6.61;74.00;100640.06;6213824;23;20013;-93
2023/03/17 00:20:28;;;;;;;5.95;3.65;;;;;;;6.48;74.30;100629.94;6212705;23;20670;-94
2023/03/17 00:22:56;;;;;;;4.82;3.78;;;;;;;6.54;73.94;100641.19;6212297;23;20488;-93
2023/03/17 00:25:26;;;;;;;5.07;3.38;;;;;;;6.51;73.33;100617.50;6211969;23;20015;-93
2023/03/17 00:27:53;;;;;;;5.70;3.70;;;;;;;6.38;73.54;100593.31;6213416;23;20000;-94
2023/03/17 00:30:20;;;;;;;3.70;3.30;;;;;;;6.45;73.49;100595.66;6184902;23;20427;-92
2023/03/17 00:32:47;;;;;;;3.78;3.38;;;;;;;6.30;73.64;100561.00;6212646;23;20010;-93
2023/03/17 00:35:25;;;;;;;4.32;3.85;;;;;;;6.44;73.28;100583.38;6213837;23;20015;-93
2023/03/17 00:37:53;;;;;;;3.88;3.40;;;;;;;6.25;73.95;100563.84;6213096;23;20008;-94
2023/03/17 00:40:22;;;;;;;3.92;3.30;;;;;;;6.32;74.24;100588.25;6185757;23;20019;-96
2023/03/17 00:42:49;;;;;;;5.13;3.30;;;;;;;6.38;73.91;100612.66;6213513;23;20004;-95
2023/03/17 00:45:16;;;;;;;3.60;3.17;;;;;;;6.46;74.54;100631.75;6213077;23;20479;-95
2023/03/17 00:47:42;;;;;;;3.50;3.15;;;;;;;6.28;74.98;100600.72;6212906;23;20080;-94
2023/03/17 00:50:27;;;;;;;4.07;3.42;;;;;;;6.29;74.62;100591.00;6215322;23;20052;-94
2023/03/17 00:52:56;;;;;;;5.65;3.70;;;;;;;6.36;74.82;100605.72;6215583;23;20019;-94
2023/03/17 00:55:23;;;;;;;4.35;3.95;;;;;;;6.36;75.09;100616.31;6215872;23;20005;-95
2023/03/17 00:57:49;;;;;;;4.32;3.47;;;;;;;6.18;74.93;100583.47;6219545;23;20013;-95
2023/03/17 01:00:27;;;;;;;4.15;3.63;;;;;;;6.08;74.81;100569.75;6238292;22;20024;-93
2023/03/17 01:02:55;;;;;;;4.60;3.20;;;;;;;6.23;75.47;100597.41;6239022;22;19999;-93
2023/03/17 01:05:24;;;;;;;4.07;3.33;;;;;;;6.03;75.25;100568.19;6238604;22;20008;-93
2023/03/17 01:07:54;;;;;;;4.13;3.72;;;;;;;6.17;75.60;100592.31;6237524;22;19999;-94
2023/03/17 01:10:22;;;;;;;4.53;3.20;;;;;;;6.14;76.16;100590.63;6211990;22;19992;-95
2023/03/17 01:12:49;;;;;;;5.80;3.40;;;;;;;6.14;76.29;100592.44;6238918;22;20004;-95
2023/03/17 01:15:16;;;;;;;8.90;3.58;;;;;;;5.95;76.54;100564.03;6239778;22;20013;-93
2023/03/17 01:17:42;;;;;;;4.03;3.50;;;;;;;6.03;76.42;100590.19;6208041;23;20007;-94
2023/03/17 01:20:15;;;;;;;5.70;3.78;;;;;;;5.90;76.14;100573.03;6229106;23;20024;-93
2023/03/17 01:22:41;;;;;;;4.15;3.75;;;;;;;5.86;76.36;100582.84;6229925;23;20035;-94
2023/03/17 01:25:06;;;;;;;5.13;3.60;;;;;;;5.72;76.54;100550.75;6231934;23;20016;-92
2023/03/17 01:27:35;;;;;;;4.65;3.78;;;;;;;5.72;76.66;100553.41;6233999;23;20064;-93
2023/03/17 01:30:05;;;;;;;4.50;3.47;;;;;;;5.84;76.76;100579.38;6229274;23;20007;-92
2023/03/17 01:32:31;;;;;;;7.03;3.67;;;;;;;5.64;77.67;100561.63;6228068;23;20000;-95
2023/03/17 01:34:57;;;;;;;4.97;3.92;;;;;;;5.62;77.25;100565.22;6226825;23;20003;-94
2023/03/17 01:37:23;;;;;;;3.78;3.38;;;;;;;5.54;77.74;100554.91;6222732;23;20011;-95
2023/03/17 01:39:48;;;;;;;4.93;3.65;;;;;;;5.55;78.38;100561.91;6220145;23;20009;-92
2023/03/17 01:42:13;;;;;;;4.47;3.33;;;;;;;5.61;77.91;100566.13;6219379;23;20486;-93
2023/03/17 01:45:37;;;;;;;3.83;3.40;;;;;;;5.54;77.34;100572.53;6217147;23;20000;-94
2023/03/17 01:48:03;;;;;;;4.65;3.60;;;;;;;5.35;78.30;100562.63;6093598;23;20061;-95
2023/03/17 01:50:29;;;;;;;4.25;3.80;;;;;;;5.34;78.58;100562.66;6092870;23;20006;-94
2023/03/17 01:52:54;;;;;;;4.80;3.42;;;;;;;5.09;79.84;100533.56;6092836;23;20154;-94
2023/03/17 01:55:20;;;;;;;3.88;3.53;;;;;;;5.24;79.31;100557.69;6068957;23;20006;-93
2023/03/17 01:57:53;;;;;;;5.10;4.10;;;;;;;5.22;79.15;100542.81;6092221;23;20014;-93
2023/03/17 02:00:22;;;;;;;4.20;3.80;;;;;;;5.35;79.76;100577.56;6094133;23;20006;-94
2023/03/17 02:02:50;;;;;;;6.00;3.58;;;;;;;5.14;79.87;100539.56;6098080;23;20010;-93
2023/03/17 02:05:20;;;;;;;4.28;3.42;;;;;;;5.30;79.75;100564.53;6109815;23;19990;-92
2023/03/17 02:07:45;;;;;;;4.40;3.85;;;;;;;5.05;80.56;100521.41;6110468;23;20015;-93
2023/03/17 02:10:13;;;;;;;6.60;4.32;;;;;;;5.05;80.26;100524.03;6099827;23;20095;-93
2023/03/17 02:12:41;;;;;;;5.70;4.00;;;;;;;4.98;80.94;100508.44;6095147;23;20010;-92
2023/03/17 02:15:09;;;;;;;4.10;3.70;;;;;;;5.18;81.46;100546.47;6102183;23;20059;-94
2023/03/17 02:17:35;;;;;;;4.55;3.60;;;;;;;5.13;80.09;100527.28;6125323;23;20030;-93
2023/03/17 02:20:16;;;;;;;5.03;4.05;;;;;;;5.27;80.68;100554.09;6229487;23;20000;-93
2023/03/17 02:22:48;;;;;;;4.00;3.58;;;;;;;5.12;79.71;100510.59;6230599;23;20056;-93
2023/03/17 02:25:15;;;;;;;4.20;3.72;;;;;;;5.21;79.87;100530.53;6230368;23;20005;-92
2023/03/17 02:27:45;;;;;;;4.93;3.72;;;;;;;5.10;79.72;100501.88;6232940;23;20000;-94
2023/03/17 02:30:15;;;;;;;3.97;3.63;;;;;;;5.05;79.43;100492.38;6238092;22;20038;-92
2023/03/17 02:32:41;;;;;;;5.53;3.63;;;;;;;5.04;79.86;100486.25;6237572;23;20012;-94
2023/03/17 02:35:07;;;;;;;5.13;3.70;;;;;;;5.08;79.70;100490.50;6238151;23;20049;-94
2023/03/17 02:37:33;;;;;;;4.45;3.60;;;;;;;5.29;79.27;100517.94;6236843;23;20008;-93
2023/03/17 02:40:00;;;;;;;4.47;3.20;;;;;;;5.23;78.43;100505.84;6223791;23;20000;-93
2023/03/17 02:42:26;;;;;;;4.28;3.88;;;;;;;5.34;77.90;100516.00;6215907;23;20080;-93
2023/03/17 02:44:53;;;;;;;3.92;3.60;;;;;;;5.38;78.00;100519.41;6215778;23;20526;-94
2023/03/17 02:47:19;;;;;;;5.63;3.83;;;;;;;5.50;79.13;100530.41;6216099;23;20005;-94
2023/03/17 02:49:44;;;;;;;5.75;3.88;;;;;;;5.25;78.55;100493.44;6213991;23;20015;-94
2023/03/17 02:52:10;;;;;;;3.53;3.08;;;;;;;5.35;79.50;100511.59;6216860;23;20008;-93
2023/03/17 02:54:36;;;;;;;4.82;3.88;;;;;;;5.44;79.33;100522.69;6216601;23;20008;-94
2023/03/17 02:57:02;;;;;;;4.45;4.05;;;;;;;5.27;79.36;100501.31;6215951;23;20034;-94
2023/03/17 02:59:28;;;;;;;4.78;3.67;;;;;;;5.44;79.29;100527.13;6214969;23;20032;-94
2023/03/17 03:01:54;;;;;;;3.78;3.38;;;;;;;5.16;78.44;100470.00;6188922;23;20399;-95
2023/03/17 03:04:20;;;;;;;4.50;3.72;;;;;;;5.24;78.19;100489.06;6215617;23;20013;-93
2023/03/17 03:06:46;;;;;;;5.43;3.92;;;;;;;5.24;78.61;100501.41;6215992;23;20083;-94
2023/03/17 03:09:12;;;;;;;4.55;3.50;;;;;;;5.32;78.57;100517.84;6216211;23;20004;-92
2023/03/17 03:11:38;;;;;;;3.83;3.42;;;;;;;5.20;79.63;100497.16;6215300;23;20016;-93
2023/03/17 03:14:04;;;;;;;6.15;3.78;;;;;;;5.11;78.59;100482.50;6188405;23;20023;-94
2023/03/17 03:16:30;;;;;;;3.70;3.35;;;;;;;5.14;78.60;100482.41;6224556;22;20044;-93
2023/03/17 03:18:56;;;;;;;5.53;3.65;;;;;;;5.19;78.60;100490.16;6238812;22;19999;-93
2023/03/17 03:21:21;;;;;;;4.68;3.85;;;;;;;5.08;78.49;100473.81;6239512;22;20042;-93
2023/03/17 03:23:47;;;;;;;3.72;3.42;;;;;;;5.23;79.04;100513.75;6239972;22;19997;-93
2023/03/17 03:26:12;;;;;;;3.85;3.28;;;;;;;5.14;78.94;100497.34;6239533;22;20001;-93
2023/03/17 03:28:38;;;;;;;4.70;3.30;;;;;;;5.34;78.92;100531.84;6212731;22;20013;-93
2023/03/17 03:31:03;;;;;;;5.13;3.55;;;;;;;5.07;78.71;100491.44;6234079;22;20052;-94
2023/03/17 03:33:29;;;;;;;3.65;3.22;;;;;;;5.07;78.61;100485.31;6217336;23;20441;-94
2023/03/17 03:35:54;;;;;;;3.90;3.20;;;;;;;5.16;77.73;100500.81;6238828;22;20001;-93
2023/03/17 03:38:19;;;;;;;3.88;3.10;;;;;;;5.12;78.77;100507.97;6239866;22;19989;-93
2023/03/17 03:40:45;;;;;;;3.63;3.33;;;;;;;5.00;79.21;100484.63;6214073;23;19996;-94
2023/03/17 03:43:11;;;;;;;4.43;3.45;;;;;;;5.14;79.30;100515.81;6240806;22;20040;-93
2023/03/17 03:45:36;;;;;;;4.43;3.63;;;;;;;5.12;79.65;100520.28;6240135;22;20023;-93
2023/03/17 03:48:02;;;;;;;4.18;3.78;;;;;;;5.04;79.67;100528.47;6240235;22;20044;-93
2023/03/17 03:50:27;;;;;;;3.55;3.25;;;;;;;5.02;79.73;100526.78;6227731;22;20032;-93
2023/03/17 03:52:52;;;;;;;4.15;3.42;;;;;;;5.00;79.42;100514.50;6223842;23;20007;-91
2023/03/17 03:55:18;;;;;;;4.22;3.45;;;;;;;4.93;79.18;100501.56;6226495;23;20415;-92
2023/03/17 03:57:43;;;;;;;3.70;3.30;;;;;;;4.95;79.26;100518.22;6224776;23;20007;-94
2023/03/17 04:00:10;;;;;;;5.00;3.47;;;;;;;4.94;79.91;100532.31;6218553;23;20318;-94
2023/03/17 04:02:35;;;;;;;4.60;3.70;;;;;;;4.80;80.57;100519.56;6216804;23;20004;-95
2023/03/17 04:05:01;;;;;;;3.42;3.10;;;;;;;4.73;80.58;100518.06;6229214;23;20084;-93
2023/03/17 04:07:27;;;;;;;3.70;3.40;;;;;;;4.75;80.36;100510.94;6233483;22;20021;-94
2023/03/17 04:09:53;;;;;;;4.20;3.28;;;;;;;5.07;79.64;100552.09;6216087;23;20308;-94
2023/03/17 04:12:18;;;;;;;3.53;3.22;;;;;;;4.89;80.87;100535.13;6217809;23;20080;-93
2023/03/17 04:14:44;;;;;;;5.18;3.25;;;;;;;4.94;79.56;100540.25;6219652;23;20013;-93
2023/03/17 04:17:11;;;;;;;4.45;3.50;;;;;;;4.85;81.01;100528.22;6218434;23;20036;-93
2023/03/17 04:19:37;;;;;;;5.60;3.60;;;;;;;4.89;80.63;100527.19;6219111;23;20468;-94
2023/03/17 04:22:04;;;;;;;3.92;3.35;;;;;;;4.73;80.37;100505.75;6216943;23;20009;-93
2023/03/17 04:24:29;;;;;;;3.72;3.33;;;;;;;4.79;81.11;100502.03;6213477;23;20023;-93
2023/03/17 04:26:55;;;;;;;3.80;3.50;;;;;;;5.09;80.95;100555.53;6212298;23;20017;-94
2023/03/17 04:29:21;;;;;;;3.92;3.17;;;;;;;4.76;81.00;100499.47;6214863;23;20587;-92
2023/03/17 04:31:47;;;;;;;5.32;3.63;;;;;;;4.96;80.60;100536.63;6214112;23;20004;-94
2023/03/17 04:34:15;;;;;;;5.53;3.40;;;;;;;4.99;80.51;100540.94;6188737;23;20005;-92
2023/03/17 04:36:41;;;;;;;4.07;3.67;;;;;;;5.02;80.41;100532.94;6213548;23;20149;-94
2023/03/17 04:39:06;;;;;;;3.55;3.17;;;;;;;5.05;81.16;100543.38;6214657;23;20011;-94
2023/03/17 04:41:32;;;;;;;4.30;3.08;;;;;;;4.81;81.23;100521.31;6215692;23;20009;-94
2023/03/17 04:43:57;;;;;;;4.55;3.65;;;;;;;4.92;81.05;100535.00;6214988;23;20023;-93
2023/03/17 04:46:22;;;;;;;5.95;3.70;;;;;;;5.15;79.99;100575.59;6214467;23;20000;-93
2023/03/17 04:48:48;;;;;;;4.40;3.50;;;;;;;4.96;81.26;100541.03;6214331;23;20009;-95
2023/03/17 04:51:13;;;;;;;4.93;3.60;;;;;;;5.00;80.33;100527.69;6215610;23;20020;-94
2023/03/17 04:53:39;;;;;;;5.60;3.65;;;;;;;5.15;80.20;100551.88;6214610;23;20011;-94
2023/03/17 04:56:05;;;;;;;4.82;3.75;;;;;;;5.00;79.83;100522.41;6187580;23;20016;-93
2023/03/17 04:58:30;;;;;;;4.80;3.22;;;;;;;4.89;80.18;100494.66;6214667;23;20038;-94
2023/03/17 05:00:55;;;;;;;4.30;3.08;;;;;;;5.19;79.99;100540.28;6213945;23;20008;-93
2023/03/17 05:03:21;;;;;;;5.05;3.05;;;;;;;5.05;79.72;100518.75;6213212;23;20000;-93
2023/03/17 05:05:46;;;;;;;3.92;3.40;;;;;;;5.07;79.32;100514.31;6212885;23;20008;-94
2023/03/17 05:08:11;;;;;;;4.82;3.42;;;;;;;4.95;79.27;100507.66;6212987;23;20062;-93
2023/03/17 05:10:37;;;;;;;6.20;3.70;;;;;;;5.08;79.41;100529.22;6212132;23;20016;-93
2023/03/17 05:13:02;;;;;;;3.90;3.42;;;;;;;5.15;79.37;100526.34;6213506;23;20005;-93
2023/03/17 05:15:28;;;;;;;4.00;3.33;;;;;;;5.24;78.83;100523.38;6212674;23;20524;-93
2023/03/17 05:17:53;;;;;;;4.82;3.90;;;;;;;5.02;79.11;100484.56;6186307;23;20032;-93
2023/03/17 05:20:19;;;;;;;5.75;3.50;;;;;;;5.20;79.16;100502.44;6187177;23;20066;-93
2023/03/17 05:22:45;;;;;;;5.10;3.25;;;;;;;5.29;78.75;100515.31;6212317;23;20008;-96
2023/03/17 05:25:10;;;;;;;4.47;3.63;;;;;;;5.10;78.63;100474.63;6211362;23;20441;-94
2023/03/17 05:27:36;;;;;;;5.60;3.70;;;;;;;5.28;79.18;100510.94;6209583;23;20017;-94
2023/03/17 05:30:02;;;;;;;4.15;3.20;;;;;;;5.22;78.79;100509.41;6212777;23;20000;-94
2023/03/17 05:32:28;;;;;;;4.50;3.42;;;;;;;5.18;79.69;100523.59;6213783;23;20004;-95
2023/03/17 05:34:53;;;;;;;5.00;3.38;;;;;;;5.01;79.76;100496.91;6215160;23;20088;-95
2023/03/17 05:37:19;;;;;;;5.13;3.67;;;;;;;5.00;80.77;100503.09;6234593;22;20028;-94
2023/03/17 05:39:44;;;;;;;4.20;3.60;;;;;;;5.12;80.25;100526.44;6238545;22;20008;-95
2023/03/17 05:42:10;;;;;;;4.10;3.70;;;;;;;4.98;80.37;100513.72;6238369;22;19996;-95
2023/03/17 05:44:35;;;;;;;6.15;3.70;;;;;;;5.07;80.48;100524.88;6238803;22;20016;-95
2023/03/17 05:47:01;;;;;;;4.50;3.83;;;;;;;5.05;80.58;100509.06;6237308;22;20036;-94
2023/03/17 05:49:27;;;;;;;4.70;3.45;;;;;;;5.05;80.47;100505.56;6239519;22;20008;-94
2023/03/17 05:51:54;;;;;;;3.60;3.20;;;;;;;4.94;81.33;100490.97;6220614;23;20008;-94
2023/03/17 05:54:20;;;;;;;4.75;3.78;;;;;;;4.99;80.87;100507.50;6238952;22;20227;-94
2023/03/17 05:56:46;;;;;;;4.90;3.50;;;;;;;5.07;81.32;100524.88;6240373;22;19996;-93
2023/03/17 05:59:13;;;;;;;4.47;3.30;;;;;;;4.84;81.44;100510.66;6241818;22;20028;-94
2023/03/17 06:01:39;;;;;;;5.70;3.92;;;;;;;4.80;82.05;100502.88;6240637;22;20020;-94
2023/03/17 06:04:05;;;;;;;5.05;3.60;;;;;;;4.89;81.80;100515.75;6240959;22;20013;-94
2023/03/17 06:06:31;;;;;;;4.78;3.58;;;;;;;5.04;81.59;100533.72;6239665;22;19993;-95
2023/03/17 06:08:56;;;;;;;4.45;3.55;;;;;;;5.00;81.45;100518.91;6240725;22;19989;-95
2023/03/17 06:11:21;;;;;;;5.20;3.63;;;;;;;4.91;81.52;100498.13;6240683;22;19993;-92
2023/03/17 06:13:47;;;;;;;4.68;4.10;;;;;;;5.00;81.32;100509.22;6241040;22;19996;-93
2023/03/17 06:16:13;;;;;;;4.35;3.67;;;;;;;5.03;81.40;100518.81;6236519;22;20043;-91
2023/03/17 06:18:38;;;;;;;4.65;3.40;;;;;;;5.19;80.73;100533.22;6238259;22;20043;-94
2023/03/17 06:21:04;;;;;;;4.05;3.53;;;;;;;5.12;81.63;100517.66;6236613;22;20005;-91
2023/03/17 06:23:29;;;;;;;4.45;3.53;;;;;;;5.07;81.45;100506.41;6235182;22;20235;-94
2023/03/17 06:25:57;;;;;;;4.30;3.78;;;;;;;5.09;81.24;100502.78;6226610;23;20419;-91
2023/03/17 06:28:23;;;;;;;7.68;4.30;;;;;;;5.24;81.36;100525.16;6215493;23;20004;-90
2023/03/17 06:30:49;;;;;;;4.57;3.90;;;;;;;5.30;81.24;100524.94;6216188;23;20118;-92
2023/03/17 06:33:17;;;;;;;6.60;4.13;;;;;;;5.40;81.15;100542.19;6219091;23;20083;-93
2023/03/17 06:35:45;;;;;;;5.07;4.10;;;;;;;5.39;80.67;100535.19;6217828;23;20000;-93
2023/03/17 06:38:12;;;;;;;6.32;4.03;;;;;;;5.42;81.14;100526.28;6218784;23;20031;-93
2023/03/17 06:40:37;;;;;;;4.43;3.60;;;;;;;5.44;80.97;100524.47;6216661;23;20104;-93
2023/03/17 06:43:03;;;;;;;5.28;3.58;;;;;;;5.54;80.76;100530.28;6216194;23;20015;-93
2023/03/17 06:45:32;;;;;;;6.20;4.00;;;;;;;5.50;79.96;100498.72;6187846;23;20027;-93
2023/03/17 06:47:57;;;;;;;6.45;4.00;;;;;;;5.58;79.94;100502.88;6214911;23;20005;-91
2023/03/17 06:50:23;;;;;;;4.75;3.80;;;;;;;5.92;79.77;100550.06;6214657;23;20088;-94
2023/03/17 06:52:49;;;;;;;4.40;3.53;;;;;;;5.72;79.95;100506.72;6214210;23;20009;-94
2023/03/17 06:55:14;;;;;;;5.53;3.70;;;;;;;5.71;80.30;100498.88;6214490;23;20362;-91
2023/03/17 06:57:40;;;;;;;5.32;3.88;;;;;;;5.93;80.09;100531.53;6213155;23;20023;-95
2023/03/17 07:00:07;;;;;;;5.07;3.90;;;;;;;5.90;79.16;100507.84;6213652;23;20004;-93
2023/03/17 07:02:33;;;;;;;7.53;4.07;;;;;;;6.12;79.07;100531.72;6214372;23;20000;-93
2023/03/17 07:04:59;;;;;;;7.13;4.03;;;;;;;6.14;79.01;100519.28;6213263;23;20008;-92
2023/03/17 07:07:26;;;;;;;8.10;4.10;;;;;;;6.10;78.14;100500.97;6213157;23;20430;-94
2023/03/17 07:09:52;;;;;;;6.53;4.10;;;;;;;6.18;78.17;100505.03;6212555;23;20055;-92
2023/03/17 07:12:18;;;;;;;6.07;4.07;;;;;;;6.57;77.49;100559.13;6215429;23;20441;-96
2023/03/17 07:14:44;;;;;;;5.82;4.00;;;;;;;6.64;78.33;100557.94;6211518;23;20354;-92
2023/03/17 07:17:11;;;;;;;7.20;4.43;;;;;;;6.38;77.65;100496.34;6213522;23;20079;-94
2023/03/17 07:19:36;;;;;;;8.07;4.20;;;;;;;6.61;77.04;100519.25;6210403;23;20009;-92
2023/03/17 07:22:02;;;;;;;105.63;14.23;;;;;;;6.61;77.35;100492.81;6183888;23;20004;-92
2023/03/17 07:24:27;;;;;;;22.95;5.47;;;;;;;6.71;75.70;100490.66;6209979;23;20004;-90
2023/03/17 07:26:53;;;;;;;46.55;8.27;;;;;;;6.89;76.44;100511.06;6207837;23;20016;-91
2023/03/17 07:29:19;;;;;;;21.05;5.68;;;;;;;7.22;75.58;100550.28;6210507;23;20011;-96
2023/03/17 07:31:45;;;;;;;22.10;5.47;;;;;;;7.18;75.54;100531.03;6218318;23;20036;-95
2023/03/17 07:34:11;;;;;;;42.80;8.93;;;;;;;7.17;74.69;100505.50;6216375;23;20008;-94
2023/03/17 07:36:37;;;;;;;33.60;7.60;;;;;;;7.26;74.25;100496.28;6215661;23;20031;-96
2023/03/17 07:39:03;;;;;;;12.23;4.78;;;;;;;7.40;73.86;100499.22;6218186;23;20485;-94
2023/03/17 07:41:29;;;;;;;21.05;6.60;;;;;;;7.52;74.39;100518.13;6216971;23;20001;-94
2023/03/17 07:43:55;;;;;;;13.57;5.20;;;;;;;7.43;73.69;100492.91;6215501;23;20016;-96
2023/03/17 07:46:20;;;;;;;17.60;6.38;;;;;;;7.89;73.17;100543.88;6216115;23;20004;-95
2023/03/17 07:48:46;;;;;;;14.27;5.00;;;;;;;7.71;72.29;100501.38;6187579;23;20009;-96
2023/03/17 07:51:19;;;;;;;10.25;5.15;;;;;;;7.80;72.44;100513.34;6213127;23;20019;-95
2023/03/17 07:53:46;;;;;;;24.02;6.47;;;;;;;7.93;72.24;100505.72;6236509;22;20057;-96
2023/03/17 07:56:12;;;;;;;12.68;5.72;;;;;;;8.04;71.88;100506.09;6236915;22;20013;-95
2023/03/17 07:58:37;;;;;;;14.43;5.03;;;;;;;8.07;71.54;100490.06;6237316;22;20041;-95
2023/03/17 08:01:03;;;;;;;14.45;5.40;;;;;;;8.13;70.26;100494.19;6238248;22;19915;-96
2023/03/17 08:03:30;;;;;;;15.02;5.75;;;;;;;8.36;70.88;100511.69;6239368;22;20012;-95
2023/03/17 08:05:56;;;;;;;19.05;5.72;;;;;;;8.41;69.79;100512.38;6239045;22;19997;-95
2023/03/17 08:08:23;;;;;;;14.70;5.95;;;;;;;8.45;69.55;100492.72;6215651;23;20012;-96
2023/03/17 08:10:50;;;;;;;10.82;5.43;;;;;;;8.83;69.86;100533.34;6208944;23;20039;-96
2023/03/17 08:13:16;;;;;;;15.85;5.65;;;;;;;8.99;69.38;100533.44;6215744;23;20008;-96
2023/03/17 08:15:42;;;;;;;12.55;5.25;;;;;;;8.89;67.82;100481.75;6217514;23;20035;-95
2023/03/17 08:18:07;;;;;;;14.30;5.43;;;;;;;9.05;67.31;100485.34;6219292;23;20004;-95
2023/03/17 08:20:33;;;;;;;16.35;5.20;;;;;;;9.33;66.69;100505.22;6239660;23;20008;-94
2023/03/17 08:22:59;;;;;;;14.15;5.53;;;;;;;9.58;65.35;100503.00;6241001;23;20043;-94
2023/03/17 08:25:25;;;;;;;12.20;5.07;;;;;;;9.82;65.08;100507.94;6214324;23;20007;-92
2023/03/17 08:27:50;;;;;;;14.63;5.00;;;;;;;10.43;64.46;100540.09;6240716;22;19989;-95
2023/03/17 08:32:52;;;;;;;15.23;6.25;;;;;;;10.85;62.59;100540.47;6233343;22;20088;-94
2023/03/17 08:35:18;;;;;;;15.20;6.10;;;;;;;10.78;61.36;100515.97;6216591;23;20086;-94
2023/03/17 08:37:45;;;;;;;15.57;6.10;;;;;;;11.00;60.68;100512.09;6216844;23;20032;-95
2023/03/17 08:40:12;;;;;;;16.77;5.68;;;;;;;11.37;59.59;100525.00;6220031;23;20028;-95
2023/03/17 08:42:37;;;;;;;16.05;5.82;;;;;;;11.20;59.67;100472.69;6208254;23;20204;-95
2023/03/17 08:45:05;;;;;;;15.65;5.80;;;;;;;11.56;58.92;100510.56;6234193;23;20375;-92
2023/03/17 08:47:32;;;;;;;15.02;5.57;;;;;;;11.58;58.70;100504.19;6233449;23;20019;-95
2023/03/17 08:49:59;;;;;;;14.50;5.45;;;;;;;11.69;58.53;100479.53;6225122;23;20066;-95
2023/03/17 08:52:25;;;;;;;14.73;5.40;;;;;;;12.36;58.15;100522.50;6223118;23;20004;-96
2023/03/17 08:54:50;;;;;;;11.60;5.15;;;;;;;12.49;57.71;100509.25;6216262;23;20004;-95
2023/03/17 08:57:16;;;;;;;11.43;5.38;;;;;;;12.89;56.61;100521.72;6222257;23;20023;-93
2023/03/17 08:59:41;;;;;;;13.23;5.35;;;;;;;12.84;55.82;100502.50;6225759;23;20005;-95
2023/03/17 09:02:10;;;;;;;14.27;5.55;;;;;;;12.85;55.29;100493.50;6198565;23;20421;-95
2023/03/17 09:04:36;;;;;;;15.07;6.40;;;;;;;13.15;54.49;100511.13;6225797;23;20019;-95
2023/03/17 09:07:01;;;;;;;11.30;4.82;;;;;;;13.41;54.37;100501.38;6221584;23;20005;-95
2023/03/17 09:09:27;;;;;;;10.25;5.18;;;;;;;13.35;54.18;100481.28;6214669;23;20019;-96
2023/03/17 09:11:52;;;;;;;14.82;5.38;;;;;;;13.53;53.63;100507.72;6214096;23;20011;-96
2023/03/17 09:14:18;;;;;;;10.57;5.07;;;;;;;13.74;53.62;100483.97;6213237;23;20358;-96
2023/03/17 09:16:47;;;;;;;9.68;4.55;;;;;;;14.06;53.02;100506.66;6213560;23;20000;-96
2023/03/17 09:19:12;;;;;;;7.90;4.60;;;;;;;14.23;51.86;100521.53;6186904;23;20386;-96
2023/03/17 09:21:38;;;;;;;8.45;4.65;;;;;;;14.20;51.95;100469.06;6212649;23;19997;-95
2023/03/17 09:24:03;;;;;;;8.77;4.28;;;;;;;14.29;52.86;100496.97;6187193;23;20043;-95
2023/03/17 09:26:29;;;;;;;9.23;4.53;;;;;;;14.37;52.12;100513.34;6211835;23;20004;-95
2023/03/17 09:28:54;;;;;;;7.85;4.50;;;;;;;14.07;51.71;100505.69;6212438;23;20000;-94
2023/03/17 09:31:20;;;;;;;11.52;5.25;;;;;;;13.84;51.97;100504.66;6212644;23;20032;-95
2023/03/17 09:33:46;;;;;;;7.03;4.53;;;;;;;13.68;52.54;100499.50;6187320;23;20012;-96
2023/03/17 09:36:14;;;;;;;8.55;4.53;;;;;;;13.48;53.94;100491.13;6213739;23;20008;-96
2023/03/17 09:38:40;;;;;;;7.63;4.38;;;;;;;13.22;55.14;100475.03;6212506;23;20036;-95
2023/03/17 09:41:30;;;;;;;7.22;4.28;;;;;;;13.01;56.13;100473.81;6213118;23;20011;-95
2023/03/17 09:44:21;;;;;;;6.05;4.07;;;;;;;13.08;56.54;100494.63;6213172;23;20505;-96
2023/03/17 09:47:14;;;;;;;6.13;4.00;;;;;;;13.22;56.86;100512.44;6212759;23;20080;-95
2023/03/17 09:49:47;;;;;;;7.50;4.78;;;;;;;13.38;55.53;100483.75;6214966;23;20004;-96
2023/03/17 09:52:17;;;;;;;6.32;4.93;;;;;;;14.64;52.67;100496.28;6217883;23;20001;-96
2023/03/17 09:54:45;;;;;;;5.65;4.05;;;;;;;15.24;52.27;100489.16;6216343;23;20008;-96
2023/03/17 09:57:31;;;;;;;7.90;4.32;;;;;;;16.57;50.99;100518.97;6214469;23;20367;-92
2023/03/17 10:00:15;;;;;;;6.97;3.80;;;;;;;17.99;47.76;100496.25;6234540;22;20047;-95
2023/03/17 10:02:42;;;;;;;5.18;3.88;;;;;;;19.52;43.45;100495.00;6238397;22;19989;-96
2023/03/17 10:05:18;;;;;;;7.03;3.50;;;;;;;21.26;40.85;100488.78;6237881;22;19992;-96
2023/03/17 10:08:13;;;;;;;8.02;3.78;;;;;;;22.04;37.87;100477.22;6212418;23;20035;-95
2023/03/17 10:10:48;;;;;;;5.25;3.65;;;;;;;22.99;36.81;100499.63;6238726;22;20048;-95
2023/03/17 10:13:26;;;;;;;4.82;3.13;;;;;;;23.08;34.67;100514.94;6239440;22;20007;-96
2023/03/17 10:15:59;;;;;;;7.07;3.38;;;;;;;21.96;35.27;100510.53;6238498;22;20001;-95
2023/03/17 10:18:31;;;;;;;5.68;2.90;;;;;;;21.41;37.13;100475.59;6240447;22;20048;-96
2023/03/17 10:21:03;;;;;;;4.13;3.30;;;;;;;21.51;37.04;100494.44;6211103;22;20001;-94
2023/03/17 10:23:33;;;;;;;5.80;3.22;;;;;;;21.03;35.51;100517.34;6238003;22;20057;-96
2023/03/17 10:26:12;;;;;;;5.15;3.20;;;;;;;21.20;38.06;100508.38;6239348;22;20003;-96
2023/03/17 10:28:38;;;;;;;4.25;2.80;;;;;;;21.54;36.37;100481.44;6201802;23;20022;-95
2023/03/17 10:31:14;;;;;;;5.93;3.40;;;;;;;21.06;37.86;100479.13;6215476;23;20065;-96
2023/03/17 10:33:40;;;;;;;4.78;2.70;;;;;;;21.23;36.79;100491.81;6216470;23;20000;-96
2023/03/17 10:36:08;;;;;;;4.43;3.15;;;;;;;21.59;35.57;100495.34;6216914;23;20031;-95
2023/03/17 10:38:34;;;;;;;4.32;2.92;;;;;;;22.01;35.17;100478.38;6219783;23;20008;-96
2023/03/17 10:41:04;;;;;;;5.20;3.47;;;;;;;22.12;33.50;100496.22;6222327;23;20115;-96
2023/03/17 10:43:35;;;;;;;6.35;3.80;;;;;;;22.15;34.07;100492.34;6240818;22;20028;-96
2023/03/17 10:46:03;;;;;;;4.65;2.70;;;;;;;22.44;32.85;100489.28;6241573;22;19997;-96
2023/03/17 10:48:34;;;;;;;4.18;2.70;;;;;;;22.77;33.75;100506.50;6240712;22;19993;-96
2023/03/17 10:51:05;;;;;;;3.35;2.80;;;;;;;22.88;32.93;100488.06;6241495;22;20045;-96
2023/03/17 10:53:37;;;;;;;4.65;3.17;;;;;;;23.27;32.23;100513.75;6215012;22;20094;-96
2023/03/17 10:56:09;;;;;;;3.30;2.70;;;;;;;23.19;32.00;100494.75;6240269;22;19992;-96
2023/03/17 10:58:47;;;;;;;4.22;2.67;;;;;;;22.80;33.65;100496.19;6239898;22;19992;-96
2023/03/17 11:01:18;;;;;;;6.13;2.80;;;;;;;22.57;33.03;100527.63;6214904;23;19996;-96
2023/03/17 11:03:51;;;;;;;4.40;2.95;;;;;;;21.64;34.14;100503.00;6238760;22;20000;-96
2023/03/17 11:06:19;;;;;;;5.55;3.00;;;;;;;21.09;34.64;100489.66;6216676;23;20017;-96
2023/03/17 11:08:44;;;;;;;4.30;2.85;;;;;;;20.27;36.33;100502.19;6239653;22;19993;-96
2023/03/17 11:11:29;;;;;;;4.63;3.15;;;;;;;20.00;38.27;100470.63;6233628;23;20007;-96
2023/03/17 11:14:15;;;;;;;5.03;2.97;;;;;;;21.78;37.58;100479.91;6229831;23;20059;-95
2023/03/17 11:17:02;;;;;;;5.78;3.00;;;;;;;23.44;34.75;100471.16;6196525;23;20004;-96
2023/03/17 11:19:44;;;;;;;4.03;2.67;;;;;;;24.04;31.38;100457.19;6227675;23;20001;-96
2023/03/17 11:22:32;;;;;;;4.53;2.83;;;;;;;25.17;31.02;100494.91;6221133;23;20008;-96
2023/03/17 11:25:18;;;;;;;5.18;2.60;;;;;;;25.30;30.88;100466.03;6222541;23;20021;-96
2023/03/17 11:27:47;;;;;;;5.43;2.80;;;;;;;25.37;28.25;100495.25;6222218;23;20001;-96
2023/03/17 11:30:24;;;;;;;4.78;2.72;;;;;;;25.34;29.50;100471.97;6219401;23;20442;-96
2023/03/17 11:32:52;;;;;;;5.07;3.13;;;;;;;26.15;28.19;100499.47;6211732;23;20024;-96
2023/03/17 11:35:23;;;;;;;4.47;2.42;;;;;;;27.16;28.58;100498.69;6219807;23;20043;-96